Wapanucka, Oklahoma
Current Conditions -  °F | °C
As of 6:15 PM on Monday 20 Oct 2014 (Local Time) from KAQR Reporting Station
Clear Clear  
Wind Chill: 77°   Ceiling: Unl
Heat Index: 79°   Visibility: 10mi
Dew Point: 59°   Wind: 3mph
Humidity: 54%   Direction: 180°S
Pressure: 30.02"   Gusts: NA
Location:  34.37°N, 96.42°W
Report Text: KAQR 202315Z AUTO 18003KT 10SM CLR 25/15 A3002 RMK AO2
Loading
Personal Weather Stations






























Interactive Weather Map
Tropical Storm Tracking
New forecast layout! Learn more

10-Day Weather Forecast

Advertisements
Track Severe Weather on mobile